Time;durP1;ratioP1;P1;durP2;ratioP2;P2;SDS_P1;SDS_P2;PMS_P1;PMS_P2;Temp;Humidity;BMP_temperature;BMP_pressure;BME280_temperature;BME280_humidity;BME280_pressure;Samples;Min_cycle;Max_cycle;Signal;HPM_P1;HPM_P2
2024/04/20 00:01:57;;;;;;;6.28;4.70;;;;;;;10.36;100.00;98727.97;5433648;26;19999;-70
2024/04/20 00:04:23;;;;;;;6.45;5.50;;;;;;;10.94;100.00;98812.41;5428691;26;20087;-69
2024/04/20 00:06:48;;;;;;;6.60;5.40;;;;;;;11.23;100.00;98797.38;5433118;26;20007;-69
2024/04/20 00:09:14;;;;;;;7.05;5.47;;;;;;;11.04;100.00;98808.53;5430275;26;20014;-69
2024/04/20 00:11:40;;;;;;;5.57;4.80;;;;;;;11.07;100.00;98818.56;5435305;26;20017;-70
2024/04/20 00:14:05;;;;;;;5.75;4.50;;;;;;;11.12;100.00;98822.53;5428719;26;19999;-69
2024/04/20 00:16:31;;;;;;;5.97;4.45;;;;;;;11.27;100.00;98808.22;5434195;26;20363;-69
2024/04/20 00:18:56;;;;;;;5.43;4.38;;;;;;;11.04;100.00;98832.25;5423990;26;20038;-69
2024/04/20 00:21:22;;;;;;;11.15;4.50;;;;;;;10.81;100.00;98735.94;5429900;26;19999;-69
2024/04/20 00:23:47;;;;;;;5.43;4.70;;;;;;;10.61;100.00;98786.06;5432564;26;20036;-70
2024/04/20 00:26:13;;;;;;;5.78;4.68;;;;;;;11.15;100.00;98854.63;5428384;26;19998;-70
2024/04/20 00:28:38;;;;;;;5.15;4.65;;;;;;;11.21;100.00;98844.16;5436409;26;19998;-70
2024/04/20 00:31:04;;;;;;;5.55;4.70;;;;;;;11.37;100.00;98831.50;5428579;26;20000;-70
2024/04/20 00:33:29;;;;;;;5.30;4.60;;;;;;;10.34;100.00;98704.34;5430699;26;20011;-69
2024/04/20 00:35:55;;;;;;;5.70;4.60;;;;;;;11.51;100.00;98837.53;5432156;26;20014;-69
2024/04/20 00:38:21;;;;;;;7.82;4.55;;;;;;;11.00;100.00;98773.97;5427147;26;20373;-69
2024/04/20 00:40:57;;;;;;;8.65;4.75;;;;;;;11.41;100.00;98800.72;5428002;26;20026;-68
2024/04/20 00:43:23;;;;;;;5.90;4.60;;;;;;;11.48;100.00;98855.50;5430148;26;20080;-69
2024/04/20 00:45:51;;;;;;;4.60;4.10;;;;;;;10.96;100.00;98813.16;5438253;26;20434;-69
2024/04/20 00:48:18;;;;;;;6.28;5.53;;;;;;;10.52;100.00;98822.88;5435572;26;19999;-69
2024/04/20 00:50:44;;;;;;;7.60;5.60;;;;;;;11.30;100.00;98886.94;5436613;26;20003;-69
2024/04/20 00:53:13;;;;;;;6.13;5.53;;;;;;;10.82;100.00;98803.66;5422616;26;20014;-69
2024/04/20 00:55:38;;;;;;;7.50;5.40;;;;;;;11.50;100.00;98835.91;5420693;26;20008;-69
2024/04/20 00:58:07;;;;;;;7.97;5.95;;;;;;;10.37;100.00;98743.16;5435261;26;20409;-69
2024/04/20 01:00:36;;;;;;;7.97;6.20;;;;;;;10.83;100.00;98725.69;5429012;26;20015;-69
2024/04/20 01:03:02;;;;;;;7.28;6.45;;;;;;;10.34;100.00;98757.69;5427330;26;20003;-72
2024/04/20 01:05:28;;;;;;;7.07;6.03;;;;;;;11.24;100.00;98821.94;5422895;26;20427;-69
2024/04/20 01:07:54;;;;;;;7.75;5.88;;;;;;;11.31;100.00;98824.97;5434397;26;20000;-69
2024/04/20 01:10:19;;;;;;;7.55;6.40;;;;;;;10.63;100.00;98700.41;5431455;26;19999;-69
2024/04/20 01:12:44;;;;;;;9.15;6.60;;;;;;;11.02;100.00;98790.81;5422199;26;20302;-70
2024/04/20 01:15:10;;;;;;;7.28;6.07;;;;;;;10.15;100.00;98684.09;5429099;26;20081;-69
2024/04/20 01:17:35;;;;;;;8.48;6.15;;;;;;;10.50;100.00;98664.59;5424286;26;20085;-69
2024/04/20 01:20:01;;;;;;;7.60;6.70;;;;;;;11.09;100.00;98754.00;5424956;26;19999;-69
2024/04/20 01:22:27;;;;;;;7.30;6.50;;;;;;;11.25;100.00;98759.16;5430447;26;20011;-69
2024/04/20 01:24:57;;;;;;;8.52;6.40;;;;;;;10.32;100.00;98662.97;5425380;26;20004;-69
2024/04/20 01:27:22;;;;;;;8.00;6.38;;;;;;;11.05;100.00;98766.97;5433776;26;20470;-69
2024/04/20 01:29:48;;;;;;;9.90;6.40;;;;;;;11.01;100.00;98745.13;5428140;26;20105;-69
2024/04/20 01:32:13;;;;;;;8.00;7.20;;;;;;;10.90;100.00;98770.25;5422773;26;19999;-69
2024/04/20 01:34:39;;;;;;;7.57;6.72;;;;;;;10.89;100.00;98718.59;5419828;26;20004;-70
2024/04/20 01:37:04;;;;;;;7.93;6.97;;;;;;;10.48;100.00;98641.81;5428398;26;20012;-70
2024/04/20 01:39:29;;;;;;;8.85;7.78;;;;;;;10.11;100.00;98664.00;5420906;26;19996;-69
2024/04/20 01:41:55;;;;;;;10.57;7.78;;;;;;;10.32;100.00;98655.34;5421759;26;20018;-69
2024/04/20 01:44:20;;;;;;;9.05;7.63;;;;;;;10.06;100.00;98633.72;5434057;26;20023;-70
2024/04/20 01:46:46;;;;;;;10.98;7.18;;;;;;;10.46;100.00;98613.13;5434345;26;20396;-69
2024/04/20 01:49:11;;;;;;;8.55;7.65;;;;;;;10.59;100.00;98626.06;5430697;26;20003;-69
2024/04/20 01:51:37;;;;;;;9.00;7.53;;;;;;;10.65;100.00;98685.91;5425498;26;20036;-69
2024/04/20 01:54:08;;;;;;;9.18;7.63;;;;;;;10.34;100.00;98613.75;5432652;26;20000;-70
2024/04/20 01:56:34;;;;;;;10.35;7.95;;;;;;;10.65;100.00;98665.59;5435532;26;20081;-69
2024/04/20 01:58:59;;;;;;;10.07;7.90;;;;;;;10.76;100.00;98727.69;5434045;26;20031;-71
2024/04/20 02:01:25;;;;;;;9.13;7.72;;;;;;;10.16;100.00;98647.63;5435495;26;19998;-69
2024/04/20 02:03:50;;;;;;;7.72;6.63;;;;;;;10.70;100.00;98620.44;5428477;26;20071;-69
2024/04/20 02:06:16;;;;;;;9.68;7.78;;;;;;;10.72;100.00;98637.25;5425652;26;20019;-69
2024/04/20 02:08:45;;;;;;;8.65;7.70;;;;;;;10.94;100.00;98698.84;5428875;26;20014;-69
2024/04/20 02:11:11;;;;;;;8.48;7.50;;;;;;;10.42;100.00;98643.84;5435447;26;19999;-69
2024/04/20 02:13:36;;;;;;;9.13;7.60;;;;;;;10.87;100.00;98654.28;5432947;26;20003;-69
2024/04/20 02:16:01;;;;;;;8.45;7.00;;;;;;;10.91;100.00;98724.41;5430362;26;20097;-69
2024/04/20 02:18:27;;;;;;;8.40;7.25;;;;;;;10.87;100.00;98676.34;5432420;26;20003;-69
2024/04/20 02:20:52;;;;;;;7.75;6.63;;;;;;;11.39;100.00;98744.00;5436523;26;20071;-69
2024/04/20 02:23:18;;;;;;;9.40;7.40;;;;;;;11.31;100.00;98756.28;5420049;26;20014;-69
2024/04/20 02:25:44;;;;;;;7.60;6.80;;;;;;;10.79;100.00;98681.81;5438064;26;20010;-68
2024/04/20 02:28:09;;;;;;;10.18;7.63;;;;;;;10.75;100.00;98695.56;5440884;26;20006;-69
2024/04/20 02:30:34;;;;;;;8.00;6.25;;;;;;;11.03;100.00;98718.69;5428947;26;20400;-68
2024/04/20 02:33:00;;;;;;;8.25;6.65;;;;;;;11.01;100.00;98714.59;5427183;26;20367;-69
2024/04/20 02:35:25;;;;;;;6.47;5.80;;;;;;;11.27;100.00;98717.47;5421653;26;20014;-69
2024/04/20 02:37:51;;;;;;;8.50;6.50;;;;;;;11.20;100.00;98763.66;5434750;26;19999;-71
2024/04/20 02:40:16;;;;;;;6.95;5.82;;;;;;;10.87;100.00;98796.66;5431136;26;20033;-68
2024/04/20 02:42:41;;;;;;;7.00;5.57;;;;;;;11.24;100.00;98775.31;5436723;26;20331;-67
2024/04/20 02:45:14;;;;;;;6.40;5.80;;;;;;;11.09;100.00;98806.59;5427083;26;20003;-68
2024/04/20 02:47:40;;;;;;;6.32;5.65;;;;;;;10.87;100.00;98694.13;5428373;26;20001;-68
2024/04/20 02:50:05;;;;;;;5.85;5.10;;;;;;;10.91;100.00;98721.06;5425136;26;20014;-67
2024/04/20 02:52:31;;;;;;;7.45;6.65;;;;;;;11.18;100.00;98806.13;5427370;26;20362;-67
2024/04/20 02:54:56;;;;;;;6.55;5.80;;;;;;;11.16;100.00;98828.28;5432654;26;20003;-68
2024/04/20 02:57:21;;;;;;;6.47;5.78;;;;;;;10.78;100.00;98731.00;5430749;26;20013;-68
2024/04/20 02:59:47;;;;;;;7.75;5.80;;;;;;;10.35;100.00;98706.84;5431788;26;20335;-68
2024/04/20 03:02:12;;;;;;;6.35;5.75;;;;;;;11.16;100.00;98853.72;5441592;26;20002;-70
2024/04/20 03:04:38;;;;;;;6.25;5.63;;;;;;;11.19;100.00;98828.94;5427276;26;20007;-70
2024/04/20 03:07:03;;;;;;;6.68;5.47;;;;;;;11.00;100.00;98850.25;5424930;26;20412;-70
2024/04/20 03:09:29;;;;;;;7.03;6.05;;;;;;;10.87;100.00;98826.34;5432278;26;20327;-70
2024/04/20 03:11:54;;;;;;;6.22;5.25;;;;;;;10.99;100.00;98833.38;5427416;26;20015;-70
2024/04/20 03:14:20;;;;;;;7.00;6.30;;;;;;;10.30;100.00;98804.47;5430451;26;20003;-70
2024/04/20 03:16:46;;;;;;;6.57;5.68;;;;;;;10.79;100.00;98852.13;5429240;26;20019;-69
2024/04/20 03:19:11;;;;;;;6.60;5.82;;;;;;;11.22;100.00;98821.19;5433015;26;20435;-69
2024/04/20 03:21:37;;;;;;;6.90;5.60;;;;;;;10.64;100.00;98745.25;5433163;26;20014;-69
2024/04/20 03:24:02;;;;;;;7.13;5.63;;;;;;;10.73;100.00;98856.66;5434920;26;20003;-70
2024/04/20 03:26:27;;;;;;;7.72;5.28;;;;;;;11.06;100.00;98838.09;5432092;26;20017;-69
2024/04/20 03:28:53;;;;;;;6.68;5.68;;;;;;;11.23;100.00;98819.47;5426185;26;20349;-69
2024/04/20 03:31:18;;;;;;;7.45;5.15;;;;;;;11.06;100.00;98857.59;5433539;26;20003;-68
2024/04/20 03:33:44;;;;;;;6.30;4.82;;;;;;;10.77;100.00;98781.91;5431574;26;20008;-68
2024/04/20 03:36:09;;;;;;;6.72;4.95;;;;;;;11.19;100.00;98863.75;5433861;26;19999;-73
2024/04/20 03:38:35;;;;;;;7.60;5.70;;;;;;;11.08;100.00;98896.50;5425467;26;20011;-71
2024/04/20 03:41:00;;;;;;;10.45;6.72;;;;;;;11.09;100.00;98909.13;5421507;26;19999;-70
2024/04/20 03:43:26;;;;;;;9.65;6.60;;;;;;;11.06;100.00;98928.81;5427473;26;20077;-70
2024/04/20 03:45:52;;;;;;;8.40;6.15;;;;;;;11.10;100.00;98918.44;5425457;26;20011;-70
2024/04/20 03:48:18;;;;;;;6.53;5.50;;;;;;;11.20;100.00;98891.66;5431415;26;21581;-70
2024/04/20 03:50:55;;;;;;;5.65;5.05;;;;;;;10.94;100.00;98846.28;5435107;26;20017;-71
2024/04/20 03:53:20;;;;;;;8.88;5.38;;;;;;;10.58;100.00;98844.69;5438675;26;20002;-71
2024/04/20 03:55:46;;;;;;;6.68;5.63;;;;;;;11.49;100.00;98919.97;5433725;26;20007;-68
2024/04/20 03:58:11;;;;;;;6.78;5.60;;;;;;;11.50;100.00;98932.59;5433496;26;20007;-71
2024/04/20 04:00:37;;;;;;;6.50;5.30;;;;;;;11.29;100.00;98952.25;5436224;26;20403;-70
2024/04/20 04:03:02;;;;;;;7.38;5.18;;;;;;;10.69;100.00;98901.72;5430362;26;19996;-69
2024/04/20 04:05:27;;;;;;;6.10;5.25;;;;;;;11.17;100.00;98957.13;5430132;26;19999;-69
2024/04/20 04:07:53;;;;;;;6.35;5.43;;;;;;;11.00;100.00;98937.56;5423432;26;20000;-70
2024/04/20 04:10:18;;;;;;;7.63;5.65;;;;;;;10.99;100.00;98891.84;5422988;26;20434;-71
2024/04/20 04:12:44;;;;;;;6.28;4.75;;;;;;;10.61;100.00;98840.28;5429309;26;20350;-70
2024/04/20 04:15:10;;;;;;;5.55;4.97;;;;;;;10.97;100.00;98897.00;5425987;26;20019;-71
2024/04/20 04:17:36;;;;;;;5.57;4.88;;;;;;;11.23;100.00;98883.06;5428767;26;20004;-71
2024/04/20 04:20:01;;;;;;;8.52;5.40;;;;;;;10.85;100.00;98912.00;5430069;26;19999;-69
2024/04/20 04:22:28;;;;;;;5.32;4.82;;;;;;;11.51;100.00;98855.34;5434846;26;20415;-71
2024/04/20 04:24:53;;;;;;;5.38;4.75;;;;;;;10.91;100.00;98904.94;5424094;26;20007;-69
2024/04/20 04:27:19;;;;;;;7.53;4.72;;;;;;;11.17;100.00;98875.72;5436467;26;20052;-69
2024/04/20 04:29:44;;;;;;;5.80;4.85;;;;;;;11.01;100.00;98789.16;5426801;26;20000;-70
2024/04/20 04:32:10;;;;;;;6.03;4.50;;;;;;;11.09;100.00;98801.50;5435415;26;20010;-70
2024/04/20 04:34:38;;;;;;;5.25;4.45;;;;;;;11.28;100.00;98902.28;5434588;26;20007;-70
2024/04/20 04:37:04;;;;;;;5.93;4.50;;;;;;;11.43;100.00;98869.38;5429858;26;20012;-69
2024/04/20 04:39:30;;;;;;;6.47;4.50;;;;;;;11.38;100.00;98881.47;5422973;26;20007;-70
2024/04/20 04:41:55;;;;;;;5.72;4.20;;;;;;;10.96;100.00;98856.38;5431382;26;20014;-70
2024/04/20 04:44:21;;;;;;;8.32;4.45;;;;;;;11.54;100.00;98900.19;5426137;26;20010;-70
2024/04/20 04:46:46;;;;;;;4.72;4.10;;;;;;;11.39;100.00;98872.97;5440268;26;19999;-70
2024/04/20 04:49:12;;;;;;;5.95;4.20;;;;;;;11.23;100.00;98779.56;5420848;26;20337;-70
2024/04/20 04:51:37;;;;;;;14.15;8.68;;;;;;;11.58;100.00;98902.53;5427888;26;20324;-70
2024/04/20 04:54:03;;;;;;;9.35;6.28;;;;;;;10.74;100.00;98812.53;5431003;26;20007;-69
2024/04/20 04:56:28;;;;;;;12.18;8.82;;;;;;;10.50;100.00;98832.31;5425450;26;20345;-70
2024/04/20 04:58:58;;;;;;;20.55;11.50;;;;;;;11.13;100.00;98861.50;5422881;26;20003;-70
2024/04/20 05:01:23;;;;;;;21.38;13.07;;;;;;;11.27;100.00;98836.19;5430966;26;20439;-70
2024/04/20 05:03:49;;;;;;;19.48;11.00;;;;;;;11.12;100.00;98768.28;5428230;26;20010;-70
2024/04/20 05:06:14;;;;;;;13.63;9.65;;;;;;;11.16;100.00;98754.53;5432056;26;20011;-70
2024/04/20 05:08:40;;;;;;;9.13;7.57;;;;;;;11.09;100.00;98720.13;5434371;26;20003;-70
2024/04/20 05:11:05;;;;;;;9.70;6.97;;;;;;;11.59;100.00;98837.97;5432399;26;20000;-70
2024/04/20 05:13:31;;;;;;;11.50;7.45;;;;;;;11.01;100.00;98752.75;5424191;26;20014;-70
2024/04/20 05:15:56;;;;;;;12.65;7.80;;;;;;;11.48;100.00;98737.63;5431364;26;20007;-69
2024/04/20 05:18:23;;;;;;;10.05;8.38;;;;;;;11.81;100.00;98856.38;5432913;26;20003;-70
2024/04/20 05:20:49;;;;;;;8.50;7.10;;;;;;;11.58;100.00;98792.25;5420204;26;20945;-70
2024/04/20 05:23:15;;;;;;;7.63;6.20;;;;;;;12.25;100.00;98888.91;5430163;26;20002;-70
2024/04/20 05:25:42;;;;;;;10.15;6.30;;;;;;;11.65;100.00;98852.94;5433041;26;20004;-70
2024/04/20 05:28:07;;;;;;;14.35;6.80;;;;;;;12.25;100.00;98956.00;5433548;26;20007;-70
2024/04/20 05:30:32;;;;;;;9.35;7.18;;;;;;;12.52;100.00;98923.19;5431659;26;20004;-70
2024/04/20 05:32:58;;;;;;;8.57;7.43;;;;;;;12.49;100.00;98949.66;5434189;26;20325;-70
2024/04/20 05:35:24;;;;;;;6.35;5.55;;;;;;;12.38;100.00;99019.94;5425698;26;20070;-69
2024/04/20 05:37:50;;;;;;;6.68;5.60;;;;;;;12.39;100.00;98968.88;5435602;26;20003;-69
2024/04/20 05:40:15;;;;;;;6.25;4.93;;;;;;;12.31;100.00;98954.84;5434533;26;20002;-71
2024/04/20 05:42:41;;;;;;;5.68;4.78;;;;;;;12.79;100.00;99052.59;5437463;26;20003;-71
2024/04/20 05:45:06;;;;;;;4.80;4.07;;;;;;;12.61;100.00;98991.50;5430719;26;20003;-69
2024/04/20 05:47:31;;;;;;;5.68;4.60;;;;;;;12.96;100.00;99090.81;5434333;26;20341;-70
2024/04/20 05:49:57;;;;;;;6.10;4.43;;;;;;;12.98;100.00;99136.63;5440529;26;20005;-69
2024/04/20 05:52:22;;;;;;;5.28;3.85;;;;;;;12.99;100.00;99134.00;5420379;26;20015;-69
2024/04/20 05:54:49;;;;;;;4.63;4.10;;;;;;;13.21;100.00;99173.78;5430426;26;20366;-69
2024/04/20 05:57:15;;;;;;;7.03;4.15;;;;;;;12.66;100.00;99077.06;5439322;26;20053;-69
2024/04/20 05:59:40;;;;;;;4.15;3.75;;;;;;;13.16;100.00;99196.97;5434652;26;20080;-70
2024/04/20 06:02:05;;;;;;;4.47;3.95;;;;;;;13.33;100.00;99198.66;5427986;26;20027;-70
2024/04/20 06:04:31;;;;;;;5.78;4.13;;;;;;;12.00;100.00;99111.78;5423033;26;20018;-69
2024/04/20 06:06:57;;;;;;;5.35;3.92;;;;;;;12.85;100.00;99217.25;5425674;26;20112;-69
2024/04/20 06:09:22;;;;;;;4.43;3.55;;;;;;;12.55;100.00;99167.75;5433213;26;20084;-71
2024/04/20 06:11:47;;;;;;;3.80;3.40;;;;;;;13.26;100.00;99279.84;5428145;26;20013;-70
2024/04/20 06:14:13;;;;;;;3.72;3.25;;;;;;;12.67;100.00;99223.25;5428629;26;20018;-69
2024/04/20 06:16:39;;;;;;;3.40;3.10;;;;;;;13.24;100.00;99327.59;5423526;26;20010;-70
2024/04/20 06:19:05;;;;;;;4.05;3.25;;;;;;;13.01;100.00;99223.25;5428736;26;20013;-69
2024/04/20 06:21:30;;;;;;;3.55;3.00;;;;;;;13.07;100.00;99254.41;5428787;26;19998;-70
2024/04/20 06:23:56;;;;;;;3.80;3.40;;;;;;;13.14;100.00;99256.63;5428649;26;20015;-70
2024/04/20 06:26:22;;;;;;;3.65;3.33;;;;;;;13.94;100.00;99369.09;5434828;26;20015;-70
2024/04/20 06:28:48;;;;;;;3.92;3.47;;;;;;;13.47;100.00;99311.94;5434812;26;20019;-70
2024/04/20 06:31:13;;;;;;;3.25;2.95;;;;;;;12.66;100.00;99311.66;5437194;26;20093;-69
2024/04/20 06:33:39;;;;;;;5.57;3.30;;;;;;;13.32;100.00;99403.78;5440137;26;20007;-69
2024/04/20 06:36:05;;;;;;;3.40;3.00;;;;;;;12.75;100.00;99303.59;5428097;26;20003;-69
2024/04/20 06:38:30;;;;;;;4.20;3.28;;;;;;;13.43;100.00;99366.59;5423978;26;20025;-69
2024/04/20 06:40:56;;;;;;;4.65;3.50;;;;;;;13.77;100.00;99379.34;5429450;26;20004;-69
2024/04/20 06:43:22;;;;;;;3.67;3.05;;;;;;;13.83;100.00;99357.78;5422118;26;20054;-69
2024/04/20 06:45:47;;;;;;;5.60;3.28;;;;;;;13.66;100.00;99403.78;5431118;26;20412;-69
2024/04/20 06:48:13;;;;;;;3.97;2.65;;;;;;;13.58;100.00;99360.75;5437116;26;20021;-69
2024/04/20 06:50:39;;;;;;;3.90;2.70;;;;;;;13.96;100.00;99334.97;5432253;26;20032;-69
2024/04/20 06:53:04;;;;;;;3.08;2.70;;;;;;;13.74;100.00;99317.38;5435881;26;20029;-69
2024/04/20 06:55:30;;;;;;;2.90;2.40;;;;;;;13.67;100.00;99398.59;5441023;26;20399;-69
2024/04/20 06:57:55;;;;;;;4.20;2.50;;;;;;;14.16;100.00;99373.13;5432118;26;20003;-69
2024/04/20 07:00:21;;;;;;;3.38;2.33;;;;;;;13.71;100.00;99404.38;5420072;26;20445;-69
2024/04/20 07:02:46;;;;;;;2.75;2.45;;;;;;;13.88;100.00;99391.59;5416762;26;20019;-71
2024/04/20 07:05:12;;;;;;;3.63;2.20;;;;;;;13.76;100.00;99352.16;5433326;26;20072;-70
2024/04/20 07:07:38;;;;;;;2.85;2.55;;;;;;;13.63;100.00;99271.94;5420539;26;20104;-72
2024/04/20 07:10:04;;;;;;;4.47;2.55;;;;;;;14.21;100.00;99368.56;5427864;26;20007;-70
2024/04/20 07:12:29;;;;;;;5.15;2.33;;;;;;;14.31;100.00;99392.78;5430047;26;20000;-69
2024/04/20 07:14:55;;;;;;;2.72;2.00;;;;;;;14.19;100.00;99421.50;5434407;26;20032;-69
2024/04/20 07:17:20;;;;;;;2.38;1.90;;;;;;;13.95;100.00;99426.16;5425673;26;19999;-70
2024/04/20 07:19:46;;;;;;;2.83;2.10;;;;;;;13.81;100.00;99319.53;5436284;26;20072;-70
2024/04/20 07:22:11;;;;;;;4.05;2.28;;;;;;;14.16;100.00;99432.75;5428873;26;20074;-70
2024/04/20 07:24:36;;;;;;;2.72;2.10;;;;;;;14.20;100.00;99413.75;5432054;26;20350;-69
2024/04/20 07:27:02;;;;;;;3.75;2.35;;;;;;;14.04;100.00;99348.19;5431683;26;20002;-70
2024/04/20 07:29:27;;;;;;;2.63;2.30;;;;;;;13.92;100.00;99358.13;5434027;26;20063;-70
2024/04/20 07:31:53;;;;;;;2.20;1.73;;;;;;;14.04;100.00;99473.44;5436560;26;20006;-70
2024/04/20 07:34:29;;;;;;;2.22;2.03;;;;;;;14.12;100.00;99477.25;5427754;26;20018;-70
2024/04/20 07:36:56;;;;;;;2.65;2.13;;;;;;;14.21;100.00;99487.00;5431722;26;20019;-70
2024/04/20 07:39:21;;;;;;;2.40;2.10;;;;;;;14.12;100.00;99375.00;5430516;26;20010;-70
2024/04/20 07:41:46;;;;;;;3.05;1.92;;;;;;;14.28;100.00;99456.88;5423685;26;19999;-70
2024/04/20 07:44:13;;;;;;;3.03;2.25;;;;;;;14.27;100.00;99439.84;5426171;26;20021;-70
2024/04/20 07:46:38;;;;;;;3.15;2.45;;;;;;;14.71;100.00;99458.84;5430460;26;20002;-69
2024/04/20 07:49:04;;;;;;;3.38;2.10;;;;;;;14.32;100.00;99489.06;5421544;26;20351;-73
2024/04/20 07:51:29;;;;;;;3.72;2.20;;;;;;;14.03;100.00;99403.59;5425930;26;20006;-69
2024/04/20 07:53:55;;;;;;;7.32;3.03;;;;;;;14.77;100.00;99454.22;5430505;26;20338;-69
2024/04/20 07:56:20;;;;;;;4.40;2.25;;;;;;;14.43;100.00;99468.88;5426047;26;20018;-69
2024/04/20 07:58:45;;;;;;;2.55;2.10;;;;;;;14.42;100.00;99468.03;5430424;26;20015;-69
2024/04/20 08:01:11;;;;;;;3.80;2.58;;;;;;;14.18;100.00;99415.56;5432699;26;19999;-69
2024/04/20 08:03:36;;;;;;;4.07;2.78;;;;;;;14.85;100.00;99478.59;5430041;26;20040;-70
2024/04/20 08:06:02;;;;;;;3.00;2.70;;;;;;;14.59;100.00;99493.59;5431956;26;21697;-70
2024/04/20 08:08:30;;;;;;;3.55;2.53;;;;;;;14.65;100.00;99485.59;5429998;26;20031;-70
2024/04/20 08:10:57;;;;;;;5.93;2.30;;;;;;;14.58;100.00;99497.03;5429804;26;20009;-69
2024/04/20 08:13:22;;;;;;;5.38;2.60;;;;;;;14.64;100.00;99518.91;5437326;26;20440;-69
2024/04/20 08:15:50;;;;;;;3.92;2.28;;;;;;;14.75;100.00;99521.75;5424177;26;20003;-70
2024/04/20 08:18:15;;;;;;;3.47;3.00;;;;;;;14.72;100.00;99535.53;5439095;26;20086;-74
2024/04/20 08:20:41;;;;;;;3.97;3.20;;;;;;;14.60;100.00;99532.75;5435547;26;20012;-69
2024/04/20 08:23:06;;;;;;;4.25;2.90;;;;;;;14.56;100.00;99503.13;5429064;26;20010;-72
2024/04/20 08:25:31;;;;;;;4.28;2.50;;;;;;;14.40;100.00;99502.28;5430391;26;19998;-70
2024/04/20 08:27:57;;;;;;;3.25;2.33;;;;;;;13.90;100.00;99434.03;5434438;26;20003;-68
2024/04/20 08:30:22;;;;;;;2.38;2.03;;;;;;;14.20;100.00;99439.31;5432577;26;20357;-69
2024/04/20 08:32:48;;;;;;;3.20;2.50;;;;;;;14.46;100.00;99495.09;5429479;26;20080;-69
2024/04/20 08:35:14;;;;;;;4.72;3.20;;;;;;;14.75;100.00;99530.25;5434846;26;20341;-69
2024/04/20 08:37:40;;;;;;;6.32;2.70;;;;;;;14.81;100.00;99547.03;5428173;26;22085;-69
2024/04/20 08:40:06;;;;;;;5.78;3.00;;;;;;;14.86;100.00;99547.59;5440635;26;20018;-68
2024/04/20 08:42:38;;;;;;;5.18;2.20;;;;;;;14.25;100.00;99485.13;5423998;26;20335;-69
2024/04/20 08:45:07;;;;;;;4.80;2.20;;;;;;;14.77;100.00;99599.28;5433624;26;20013;-69
2024/04/20 08:47:34;;;;;;;3.10;2.10;;;;;;;14.72;100.00;99609.72;5420932;26;20014;-68
2024/04/20 08:50:00;;;;;;;3.58;2.10;;;;;;;14.51;100.00;99621.06;5427469;26;20398;-68
2024/04/20 08:52:27;;;;;;;6.30;2.20;;;;;;;14.58;100.00;99624.94;5425346;26;20013;-68
2024/04/20 08:54:57;;;;;;;2.53;1.95;;;;;;;14.83;100.00;99619.44;5428379;26;20018;-69
2024/04/20 08:57:23;;;;;;;3.08;2.35;;;;;;;14.80;100.00;99624.69;5428643;26;20068;-69
2024/04/20 08:59:50;;;;;;;3.25;2.35;;;;;;;14.46;100.00;99537.78;5441780;26;20013;-69
2024/04/20 09:02:24;;;;;;;2.38;1.90;;;;;;;14.57;100.00;99561.91;5432024;26;20338;-69
2024/04/20 09:04:51;;;;;;;3.92;2.60;;;;;;;14.55;100.00;99521.94;5434900;26;20011;-70
2024/04/20 09:07:17;;;;;;;2.63;2.00;;;;;;;14.70;100.00;99541.63;5438505;26;20018;-70
2024/04/20 09:09:42;;;;;;;3.45;1.92;;;;;;;15.01;100.00;99604.84;5429872;26;20004;-70
2024/04/20 09:12:08;;;;;;;4.45;1.90;;;;;;;14.64;100.00;99536.81;5435314;26;20018;-70
2024/04/20 09:14:34;;;;;;;1.75;1.60;;;;;;;14.75;100.00;99586.56;5442848;26;20354;-70
2024/04/20 09:16:59;;;;;;;6.82;5.45;;;;;;;14.93;100.00;99625.75;5430997;26;20346;-70
2024/04/20 09:19:25;;;;;;;7.32;5.65;;;;;;;15.30;100.00;99584.50;5433245;26;20036;-69
2024/04/20 09:21:50;;;;;;;3.28;2.40;;;;;;;15.10;100.00;99629.97;5431007;26;20018;-69
2024/04/20 09:24:16;;;;;;;3.58;2.00;;;;;;;14.50;100.00;99565.66;5433829;26;20381;-70
2024/04/20 09:26:50;;;;;;;2.20;1.60;;;;;;;15.19;100.00;99640.56;5430718;26;20030;-72
2024/04/20 09:29:15;;;;;;;1.95;1.73;;;;;;;14.71;100.00;99590.19;5440981;26;20018;-69
2024/04/20 09:31:48;;;;;;;2.70;2.00;;;;;;;14.78;100.00;99608.59;5429797;26;20453;-70
2024/04/20 09:34:13;;;;;;;3.38;2.17;;;;;;;14.19;100.00;99493.09;5425947;26;20035;-70
2024/04/20 09:36:39;;;;;;;2.50;2.13;;;;;;;14.60;100.00;99586.50;5425721;26;20326;-69
2024/04/20 09:39:05;;;;;;;2.40;1.88;;;;;;;14.85;100.00;99650.06;5426365;26;20003;-69
2024/04/20 09:41:31;;;;;;;2.30;1.77;;;;;;;14.75;100.00;99700.88;5434090;26;20035;-70
2024/04/20 09:44:02;;;;;;;3.80;2.05;;;;;;;14.97;100.00;99652.84;5430353;26;19999;-69
2024/04/20 09:46:32;;;;;;;2.20;2.00;;;;;;;14.94;100.00;99575.34;5426970;26;20015;-71
2024/04/20 09:49:03;;;;;;;3.90;2.05;;;;;;;14.80;100.00;99611.91;5424813;26;20026;-70
2024/04/20 09:51:38;;;;;;;3.70;2.10;;;;;;;14.78;100.00;99591.50;5432997;26;20000;-69
2024/04/20 09:54:12;;;;;;;3.35;2.00;;;;;;;15.22;100.00;99683.94;5437660;26;20010;-69
2024/04/20 09:56:40;;;;;;;3.00;2.05;;;;;;;14.63;100.00;99606.81;5418746;26;19999;-69
2024/04/20 09:59:06;;;;;;;2.60;1.90;;;;;;;15.01;100.00;99617.66;5433111;26;20009;-69
2024/04/20 10:01:32;;;;;;;2.42;1.77;;;;;;;14.82;100.00;99586.22;5428649;26;19998;-69
2024/04/20 10:03:58;;;;;;;3.28;1.77;;;;;;;15.20;100.00;99685.75;5430255;26;20002;-69
2024/04/20 10:06:24;;;;;;;3.25;1.70;;;;;;;15.21;100.00;99660.97;5433839;26;20488;-69
2024/04/20 10:08:50;;;;;;;2.17;1.58;;;;;;;14.48;100.00;99587.13;5433215;26;20007;-69
2024/04/20 10:11:18;;;;;;;2.20;1.50;;;;;;;15.25;100.00;99673.53;5436520;26;20014;-69
2024/04/20 10:13:44;;;;;;;2.35;1.88;;;;;;;15.06;100.00;99643.84;5434956;26;20014;-69
2024/04/20 10:16:10;;;;;;;2.95;1.52;;;;;;;15.32;100.00;99659.50;5433027;26;20438;-69
2024/04/20 10:18:35;;;;;;;2.88;1.83;;;;;;;15.21;100.00;99549.09;5434319;26;20013;-70
2024/04/20 10:21:01;;;;;;;3.83;2.50;;;;;;;15.71;100.00;99610.44;5429138;26;20004;-69
2024/04/20 10:23:28;;;;;;;2.13;1.80;;;;;;;15.23;100.00;99683.03;5432787;26;20002;-69
2024/04/20 10:25:54;;;;;;;2.85;1.80;;;;;;;16.04;100.00;99630.84;5429255;26;20003;-68
2024/04/20 10:28:31;;;;;;;2.17;1.70;;;;;;;15.27;100.00;99578.72;5430311;26;20319;-71
2024/04/20 10:30:58;;;;;;;2.15;1.70;;;;;;;15.28;100.00;99673.38;5434918;26;20138;-69
2024/04/20 10:33:26;;;;;;;3.15;1.60;;;;;;;15.72;100.00;99648.00;5433917;26;20398;-69
2024/04/20 10:36:06;;;;;;;2.00;1.50;;;;;;;15.28;100.00;99677.69;5430210;26;20031;-69
2024/04/20 10:38:32;;;;;;;2.35;1.70;;;;;;;14.97;100.00;99564.97;5418711;26;19999;-69
2024/04/20 10:41:14;;;;;;;3.22;1.67;;;;;;;15.35;100.00;99656.78;5432369;26;20018;-69
2024/04/20 10:43:39;;;;;;;;;;;;;;;15.23;100.00;99666.84;5430764;26;20007;-69
2024/04/20 10:46:05;;;;;;;3.50;1.80;;;;;;;14.57;100.00;99523.53;5432246;26;20267;-69
2024/04/20 10:48:40;;;;;;;3.30;2.13;;;;;;;14.97;100.00;99581.16;5425981;26;20007;-69
2024/04/20 10:51:08;;;;;;;2.83;2.40;;;;;;;15.38;100.00;99609.69;5430809;26;20000;-71
2024/04/20 10:53:33;;;;;;;3.95;2.10;;;;;;;15.07;100.00;99579.78;5437838;26;20671;-69
2024/04/20 10:56:00;;;;;;;3.72;2.05;;;;;;;15.75;100.00;99647.00;5431851;26;20018;-69
2024/04/20 10:58:26;;;;;;;2.60;2.00;;;;;;;15.43;100.00;99636.72;5426623;26;20023;-69
2024/04/20 11:00:56;;;;;;;2.28;1.67;;;;;;;15.14;100.00;99675.00;5425376;26;20014;-69
2024/04/20 11:03:22;;;;;;;3.00;1.70;;;;;;;14.87;100.00;99594.50;5426400;26;19999;-69
2024/04/20 11:06:00;;;;;;;2.15;1.80;;;;;;;15.66;100.00;99644.94;5427501;26;20026;-70
2024/04/20 11:08:26;;;;;;;5.10;1.60;;;;;;;15.44;100.00;99648.66;5430633;26;20009;-70
2024/04/20 11:10:58;;;;;;;2.28;1.90;;;;;;;15.12;100.00;99595.69;5423592;26;20000;-70
2024/04/20 11:13:24;;;;;;;3.03;1.98;;;;;;;15.57;100.00;99648.81;5425845;26;19999;-70
2024/04/20 11:15:50;;;;;;;1.85;1.48;;;;;;;15.74;100.00;99670.97;5430794;26;20010;-70
2024/04/20 11:18:16;;;;;;;1.95;1.52;;;;;;;15.71;100.00;99654.03;5430206;26;20000;-70
2024/04/20 11:20:42;;;;;;;2.70;1.60;;;;;;;15.65;100.00;99681.75;5432269;26;20007;-70